sensor_id;sensor_type;location;lat;lon;timestamp;temperature;humidity
12769;DHT22;6448;48.916;8.990;2022-11-11T00:00:50;13.00;56.00
12769;DHT22;6448;48.916;8.990;2022-11-11T00:02:10;13.00;55.80
12769;DHT22;6448;48.916;8.990;2022-11-11T00:03:31;13.00;55.70
12769;DHT22;6448;48.916;8.990;2022-11-11T00:04:51;13.00;55.70
12769;DHT22;6448;48.916;8.990;2022-11-11T00:06:12;13.00;55.80
12769;DHT22;6448;48.916;8.990;2022-11-11T00:07:33;13.00;56.50
12769;DHT22;6448;48.916;8.990;2022-11-11T00:08:52;12.90;56.00
12769;DHT22;6448;48.916;8.990;2022-11-11T00:10:13;12.90;56.10
12769;DHT22;6448;48.916;8.990;2022-11-11T00:11:36;12.90;56.20
12769;DHT22;6448;48.916;8.990;2022-11-11T00:12:58;12.90;56.10
12769;DHT22;6448;48.916;8.990;2022-11-11T00:14:18;12.90;56.20
12769;DHT22;6448;48.916;8.990;2022-11-11T00:15:38;12.90;56.30
12769;DHT22;6448;48.916;8.990;2022-11-11T00:17:00;12.80;56.30
12769;DHT22;6448;48.916;8.990;2022-11-11T00:18:39;12.80;56.30
12769;DHT22;6448;48.916;8.990;2022-11-11T00:20:17;12.80;56.20
12769;DHT22;6448;48.916;8.990;2022-11-11T00:21:55;12.80;56.20
12769;DHT22;6448;48.916;8.990;2022-11-11T00:23:33;12.80;56.30
12769;DHT22;6448;48.916;8.990;2022-11-11T00:25:13;12.80;56.40
12769;DHT22;6448;48.916;8.990;2022-11-11T00:26:33;12.80;56.40
12769;DHT22;6448;48.916;8.990;2022-11-11T00:27:54;12.70;56.30
12769;DHT22;6448;48.916;8.990;2022-11-11T00:29:13;12.70;56.30
12769;DHT22;6448;48.916;8.990;2022-11-11T00:30:34;12.70;56.30
12769;DHT22;6448;48.916;8.990;2022-11-11T00:31:54;12.80;56.30
12769;DHT22;6448;48.916;8.990;2022-11-11T00:33:34;12.70;56.20
12769;DHT22;6448;48.916;8.990;2022-11-11T00:34:55;12.70;56.20
12769;DHT22;6448;48.916;8.990;2022-11-11T00:36:34;12.70;56.20
12769;DHT22;6448;48.916;8.990;2022-11-11T00:37:54;12.70;56.10
12769;DHT22;6448;48.916;8.990;2022-11-11T00:39:14;12.70;56.10
12769;DHT22;6448;48.916;8.990;2022-11-11T00:40:35;12.70;56.10
12769;DHT22;6448;48.916;8.990;2022-11-11T00:41:54;12.70;56.10
12769;DHT22;6448;48.916;8.990;2022-11-11T00:43:14;12.70;56.10
12769;DHT22;6448;48.916;8.990;2022-11-11T00:44:34;12.70;56.20
12769;DHT22;6448;48.916;8.990;2022-11-11T00:45:54;12.70;56.70
12769;DHT22;6448;48.916;8.990;2022-11-11T00:47:35;12.60;56.10
12769;DHT22;6448;48.916;8.990;2022-11-11T00:49:14;12.60;56.00
12769;DHT22;6448;48.916;8.990;2022-11-11T00:50:52;12.60;56.10
12769;DHT22;6448;48.916;8.990;2022-11-11T00:52:19;12.60;56.10
12769;DHT22;6448;48.916;8.990;2022-11-11T00:53:37;12.60;56.10
12769;DHT22;6448;48.916;8.990;2022-11-11T00:54:58;12.60;56.10
12769;DHT22;6448;48.916;8.990;2022-11-11T00:56:19;12.60;56.10
12769;DHT22;6448;48.916;8.990;2022-11-11T00:57:39;12.60;56.00
12769;DHT22;6448;48.916;8.990;2022-11-11T00:58:59;12.60;56.00
12769;DHT22;6448;48.916;8.990;2022-11-11T01:00:20;12.60;55.80
12769;DHT22;6448;48.916;8.990;2022-11-11T01:01:39;12.60;55.90
12769;DHT22;6448;48.916;8.990;2022-11-11T01:03:00;12.50;55.80
12769;DHT22;6448;48.916;8.990;2022-11-11T01:04:21;12.50;55.90
12769;DHT22;6448;48.916;8.990;2022-11-11T01:05:41;12.50;55.90
12769;DHT22;6448;48.916;8.990;2022-11-11T01:07:02;12.50;56.00
12769;DHT22;6448;48.916;8.990;2022-11-11T01:08:24;12.50;56.00
12769;DHT22;6448;48.916;8.990;2022-11-11T01:09:44;12.50;56.10
12769;DHT22;6448;48.916;8.990;2022-11-11T01:11:11;12.40;56.10
12769;DHT22;6448;48.916;8.990;2022-11-11T01:12:30;12.50;56.20
12769;DHT22;6448;48.916;8.990;2022-11-11T01:13:51;12.50;56.20
12769;DHT22;6448;48.916;8.990;2022-11-11T01:15:11;12.50;56.10
12769;DHT22;6448;48.916;8.990;2022-11-11T01:16:31;12.40;56.00
12769;DHT22;6448;48.916;8.990;2022-11-11T01:17:51;12.40;56.10
12769;DHT22;6448;48.916;8.990;2022-11-11T01:19:11;12.40;56.20
12769;DHT22;6448;48.916;8.990;2022-11-11T01:20:33;12.40;56.20
12769;DHT22;6448;48.916;8.990;2022-11-11T01:21:53;12.30;56.20
12769;DHT22;6448;48.916;8.990;2022-11-11T01:23:13;12.40;56.30
12769;DHT22;6448;48.916;8.990;2022-11-11T01:24:33;12.40;56.40
12769;DHT22;6448;48.916;8.990;2022-11-11T01:25:53;12.30;56.40
12769;DHT22;6448;48.916;8.990;2022-11-11T01:27:13;12.30;56.50
12769;DHT22;6448;48.916;8.990;2022-11-11T01:28:33;12.30;56.50
12769;DHT22;6448;48.916;8.990;2022-11-11T01:29:53;12.30;56.40
12769;DHT22;6448;48.916;8.990;2022-11-11T01:31:14;12.30;56.40
12769;DHT22;6448;48.916;8.990;2022-11-11T01:32:35;12.30;56.40
12769;DHT22;6448;48.916;8.990;2022-11-11T01:33:54;12.30;56.40
12769;DHT22;6448;48.916;8.990;2022-11-11T01:35:15;12.30;56.40
12769;DHT22;6448;48.916;8.990;2022-11-11T01:36:36;12.30;56.40
12769;DHT22;6448;48.916;8.990;2022-11-11T01:37:56;12.30;56.40
12769;DHT22;6448;48.916;8.990;2022-11-11T01:39:16;12.30;56.50
12769;DHT22;6448;48.916;8.990;2022-11-11T01:40:40;12.30;56.40
12769;DHT22;6448;48.916;8.990;2022-11-11T01:42:00;12.20;56.40
12769;DHT22;6448;48.916;8.990;2022-11-11T01:43:22;12.20;56.40
12769;DHT22;6448;48.916;8.990;2022-11-11T01:44:44;12.20;56.30
12769;DHT22;6448;48.916;8.990;2022-11-11T01:46:20;12.20;56.30
12769;DHT22;6448;48.916;8.990;2022-11-11T01:47:42;12.20;56.20
12769;DHT22;6448;48.916;8.990;2022-11-11T01:49:29;12.20;56.20
12769;DHT22;6448;48.916;8.990;2022-11-11T01:50:50;12.20;56.20
12769;DHT22;6448;48.916;8.990;2022-11-11T01:52:14;12.20;56.20
12769;DHT22;6448;48.916;8.990;2022-11-11T01:53:35;12.20;56.20
12769;DHT22;6448;48.916;8.990;2022-11-11T01:54:57;12.10;56.10
12769;DHT22;6448;48.916;8.990;2022-11-11T01:56:18;12.10;56.10
12769;DHT22;6448;48.916;8.990;2022-11-11T01:57:42;12.10;56.20
12769;DHT22;6448;48.916;8.990;2022-11-11T01:59:06;12.10;56.30
12769;DHT22;6448;48.916;8.990;2022-11-11T02:00:27;12.10;56.30
12769;DHT22;6448;48.916;8.990;2022-11-11T02:01:48;12.10;56.30
12769;DHT22;6448;48.916;8.990;2022-11-11T02:03:09;12.10;56.30
12769;DHT22;6448;48.916;8.990;2022-11-11T02:04:30;12.10;56.30
12769;DHT22;6448;48.916;8.990;2022-11-11T02:06:10;12.10;56.40
12769;DHT22;6448;48.916;8.990;2022-11-11T02:07:33;12.10;56.40
12769;DHT22;6448;48.916;8.990;2022-11-11T02:08:52;12.00;56.40
12769;DHT22;6448;48.916;8.990;2022-11-11T02:10:12;12.00;56.30
12769;DHT22;6448;48.916;8.990;2022-11-11T02:11:35;12.00;56.20
12769;DHT22;6448;48.916;8.990;2022-11-11T02:13:15;12.10;56.20
12769;DHT22;6448;48.916;8.990;2022-11-11T02:14:56;12.10;56.20
12769;DHT22;6448;48.916;8.990;2022-11-11T02:16:17;12.00;56.10
12769;DHT22;6448;48.916;8.990;2022-11-11T02:17:37;12.00;56.10
12769;DHT22;6448;48.916;8.990;2022-11-11T02:18:57;12.00;56.00
12769;DHT22;6448;48.916;8.990;2022-11-11T02:20:20;12.00;56.10
12769;DHT22;6448;48.916;8.990;2022-11-11T02:21:46;12.00;56.10
12769;DHT22;6448;48.916;8.990;2022-11-11T02:23:12;12.00;56.00
12769;DHT22;6448;48.916;8.990;2022-11-11T02:24:36;12.00;56.00
12769;DHT22;6448;48.916;8.990;2022-11-11T02:25:57;12.00;56.10
12769;DHT22;6448;48.916;8.990;2022-11-11T02:27:21;11.90;56.10
12769;DHT22;6448;48.916;8.990;2022-11-11T02:28:41;11.90;56.20
12769;DHT22;6448;48.916;8.990;2022-11-11T02:30:05;12.00;56.20
12769;DHT22;6448;48.916;8.990;2022-11-11T02:31:33;11.90;56.20
12769;DHT22;6448;48.916;8.990;2022-11-11T02:32:53;11.90;56.20
12769;DHT22;6448;48.916;8.990;2022-11-11T02:34:13;11.90;56.20
12769;DHT22;6448;48.916;8.990;2022-11-11T02:35:34;11.90;56.20
12769;DHT22;6448;48.916;8.990;2022-11-11T02:36:55;11.90;56.10
12769;DHT22;6448;48.916;8.990;2022-11-11T02:38:14;11.90;56.10
12769;DHT22;6448;48.916;8.990;2022-11-11T02:39:41;11.90;56.10
12769;DHT22;6448;48.916;8.990;2022-11-11T02:41:02;11.90;56.10
12769;DHT22;6448;48.916;8.990;2022-11-11T02:42:40;11.90;56.10
12769;DHT22;6448;48.916;8.990;2022-11-11T02:44:00;11.80;56.10
12769;DHT22;6448;48.916;8.990;2022-11-11T02:45:20;11.90;56.20
12769;DHT22;6448;48.916;8.990;2022-11-11T02:46:40;11.80;56.20
12769;DHT22;6448;48.916;8.990;2022-11-11T02:47:59;11.80;56.20
12769;DHT22;6448;48.916;8.990;2022-11-11T02:49:20;11.80;56.20
12769;DHT22;6448;48.916;8.990;2022-11-11T02:50:39;11.80;56.20
12769;DHT22;6448;48.916;8.990;2022-11-11T02:52:00;11.90;56.20
12769;DHT22;6448;48.916;8.990;2022-11-11T02:53:20;11.80;56.10
12769;DHT22;6448;48.916;8.990;2022-11-11T02:54:42;11.80;56.10
12769;DHT22;6448;48.916;8.990;2022-11-11T02:56:02;11.80;56.30
12769;DHT22;6448;48.916;8.990;2022-11-11T02:57:23;11.80;56.00
12769;DHT22;6448;48.916;8.990;2022-11-11T02:58:42;11.70;55.80
12769;DHT22;6448;48.916;8.990;2022-11-11T03:00:04;11.80;56.00
12769;DHT22;6448;48.916;8.990;2022-11-11T03:01:24;11.80;56.00
12769;DHT22;6448;48.916;8.990;2022-11-11T03:02:43;11.90;56.00
12769;DHT22;6448;48.916;8.990;2022-11-11T03:04:04;11.80;56.00
12769;DHT22;6448;48.916;8.990;2022-11-11T03:05:23;11.70;55.90
12769;DHT22;6448;48.916;8.990;2022-11-11T03:06:43;11.80;56.00
12769;DHT22;6448;48.916;8.990;2022-11-11T03:08:03;11.70;55.80
12769;DHT22;6448;48.916;8.990;2022-11-11T03:09:23;11.80;56.00
12769;DHT22;6448;48.916;8.990;2022-11-11T03:10:44;11.80;56.00
12769;DHT22;6448;48.916;8.990;2022-11-11T03:12:05;11.80;56.10
12769;DHT22;6448;48.916;8.990;2022-11-11T03:13:24;11.70;56.00
12769;DHT22;6448;48.916;8.990;2022-11-11T03:14:45;11.70;56.10
12769;DHT22;6448;48.916;8.990;2022-11-11T03:16:05;11.70;56.00
12769;DHT22;6448;48.916;8.990;2022-11-11T03:17:45;11.70;56.10
12769;DHT22;6448;48.916;8.990;2022-11-11T03:19:04;11.70;56.10
12769;DHT22;6448;48.916;8.990;2022-11-11T03:20:26;11.70;56.10
12769;DHT22;6448;48.916;8.990;2022-11-11T03:22:04;11.70;56.10
12769;DHT22;6448;48.916;8.990;2022-11-11T03:23:24;11.70;55.90
12769;DHT22;6448;48.916;8.990;2022-11-11T03:24:44;11.70;55.80
12769;DHT22;6448;48.916;8.990;2022-11-11T03:26:23;11.60;55.80
12769;DHT22;6448;48.916;8.990;2022-11-11T03:27:43;11.60;55.90
12769;DHT22;6448;48.916;8.990;2022-11-11T03:29:03;11.60;55.90
12769;DHT22;6448;48.916;8.990;2022-11-11T03:30:24;11.60;55.90
12769;DHT22;6448;48.916;8.990;2022-11-11T03:31:43;11.60;55.90
12769;DHT22;6448;48.916;8.990;2022-11-11T03:33:04;11.70;56.00
12769;DHT22;6448;48.916;8.990;2022-11-11T03:34:23;11.60;55.90
12769;DHT22;6448;48.916;8.990;2022-11-11T03:35:46;11.60;56.00
12769;DHT22;6448;48.916;8.990;2022-11-11T03:37:07;11.60;55.90
12769;DHT22;6448;48.916;8.990;2022-11-11T03:38:46;11.60;55.90
12769;DHT22;6448;48.916;8.990;2022-11-11T03:40:07;11.60;55.80
12769;DHT22;6448;48.916;8.990;2022-11-11T03:41:29;11.60;55.80
12769;DHT22;6448;48.916;8.990;2022-11-11T03:42:49;11.60;55.80
12769;DHT22;6448;48.916;8.990;2022-11-11T03:44:09;11.60;55.80
12769;DHT22;6448;48.916;8.990;2022-11-11T03:45:29;11.50;55.80
12769;DHT22;6448;48.916;8.990;2022-11-11T03:46:49;11.60;55.80
12769;DHT22;6448;48.916;8.990;2022-11-11T03:48:10;11.50;55.80
12769;DHT22;6448;48.916;8.990;2022-11-11T03:49:29;11.50;55.80
12769;DHT22;6448;48.916;8.990;2022-11-11T03:50:50;11.60;55.90
12769;DHT22;6448;48.916;8.990;2022-11-11T03:52:11;11.50;56.40
12769;DHT22;6448;48.916;8.990;2022-11-11T03:53:31;11.50;55.80
12769;DHT22;6448;48.916;8.990;2022-11-11T03:54:51;11.50;55.90
12769;DHT22;6448;48.916;8.990;2022-11-11T03:56:11;11.50;55.90
12769;DHT22;6448;48.916;8.990;2022-11-11T03:57:33;11.50;55.90
12769;DHT22;6448;48.916;8.990;2022-11-11T03:58:52;11.50;55.80
12769;DHT22;6448;48.916;8.990;2022-11-11T04:00:15;11.50;55.80
12769;DHT22;6448;48.916;8.990;2022-11-11T04:01:36;11.50;55.90
12769;DHT22;6448;48.916;8.990;2022-11-11T04:03:16;11.50;55.80
12769;DHT22;6448;48.916;8.990;2022-11-11T04:04:54;11.50;55.80
12769;DHT22;6448;48.916;8.990;2022-11-11T04:06:31;11.50;55.90
12769;DHT22;6448;48.916;8.990;2022-11-11T04:08:11;11.50;55.80
12769;DHT22;6448;48.916;8.990;2022-11-11T04:09:50;11.50;55.90
12769;DHT22;6448;48.916;8.990;2022-11-11T04:11:29;11.40;55.90
12769;DHT22;6448;48.916;8.990;2022-11-11T04:12:52;11.40;55.90
12769;DHT22;6448;48.916;8.990;2022-11-11T04:14:27;11.40;56.00
12769;DHT22;6448;48.916;8.990;2022-11-11T04:16:13;11.40;55.90
12769;DHT22;6448;48.916;8.990;2022-11-11T04:17:33;11.40;55.90
12769;DHT22;6448;48.916;8.990;2022-11-11T04:18:53;11.40;55.90
12769;DHT22;6448;48.916;8.990;2022-11-11T04:20:31;11.40;55.90
12769;DHT22;6448;48.916;8.990;2022-11-11T04:22:09;11.40;55.90
12769;DHT22;6448;48.916;8.990;2022-11-11T04:23:30;11.40;55.90
12769;DHT22;6448;48.916;8.990;2022-11-11T04:24:49;11.40;55.90
12769;DHT22;6448;48.916;8.990;2022-11-11T04:26:27;11.40;56.00
12769;DHT22;6448;48.916;8.990;2022-11-11T04:27:48;11.40;56.00
12769;DHT22;6448;48.916;8.990;2022-11-11T04:29:29;11.30;56.00
12769;DHT22;6448;48.916;8.990;2022-11-11T04:30:49;11.50;56.00
12769;DHT22;6448;48.916;8.990;2022-11-11T04:32:10;11.30;55.80
12769;DHT22;6448;48.916;8.990;2022-11-11T04:33:49;11.50;55.90
12769;DHT22;6448;48.916;8.990;2022-11-11T04:35:11;11.30;55.80
12769;DHT22;6448;48.916;8.990;2022-11-11T04:36:31;11.30;55.80
12769;DHT22;6448;48.916;8.990;2022-11-11T04:37:52;11.30;55.80
12769;DHT22;6448;48.916;8.990;2022-11-11T04:39:31;11.30;55.80
12769;DHT22;6448;48.916;8.990;2022-11-11T04:41:09;11.30;55.80
12769;DHT22;6448;48.916;8.990;2022-11-11T04:42:31;11.30;55.70
12769;DHT22;6448;48.916;8.990;2022-11-11T04:43:51;11.30;55.70
12769;DHT22;6448;48.916;8.990;2022-11-11T04:45:31;11.40;55.70
12769;DHT22;6448;48.916;8.990;2022-11-11T04:46:50;11.30;55.70
12769;DHT22;6448;48.916;8.990;2022-11-11T04:48:10;11.30;55.70
12769;DHT22;6448;48.916;8.990;2022-11-11T04:49:31;11.30;55.60
12769;DHT22;6448;48.916;8.990;2022-11-11T04:50:50;11.30;55.60
12769;DHT22;6448;48.916;8.990;2022-11-11T04:52:11;11.20;55.60
12769;DHT22;6448;48.916;8.990;2022-11-11T04:53:45;11.30;55.70
12769;DHT22;6448;48.916;8.990;2022-11-11T04:55:06;11.30;55.80
12769;DHT22;6448;48.916;8.990;2022-11-11T04:56:45;11.20;55.70
12769;DHT22;6448;48.916;8.990;2022-11-11T04:58:08;11.20;55.80
12769;DHT22;6448;48.916;8.990;2022-11-11T04:59:29;11.20;55.90
12769;DHT22;6448;48.916;8.990;2022-11-11T05:00:49;11.20;55.90
12769;DHT22;6448;48.916;8.990;2022-11-11T05:02:10;11.20;56.00
12769;DHT22;6448;48.916;8.990;2022-11-11T05:03:48;11.20;56.00
12769;DHT22;6448;48.916;8.990;2022-11-11T05:05:08;11.20;56.00
12769;DHT22;6448;48.916;8.990;2022-11-11T05:06:28;11.20;56.00
12769;DHT22;6448;48.916;8.990;2022-11-11T05:08:11;11.50;56.20
12769;DHT22;6448;48.916;8.990;2022-11-11T05:09:49;11.20;56.00
12769;DHT22;6448;48.916;8.990;2022-11-11T05:11:10;11.20;56.00
12769;DHT22;6448;48.916;8.990;2022-11-11T05:12:29;11.20;56.10
12769;DHT22;6448;48.916;8.990;2022-11-11T05:13:50;11.20;56.10
12769;DHT22;6448;48.916;8.990;2022-11-11T05:15:28;11.20;56.10
12769;DHT22;6448;48.916;8.990;2022-11-11T05:17:09;11.20;56.10
12769;DHT22;6448;48.916;8.990;2022-11-11T05:18:47;11.20;56.10
12769;DHT22;6448;48.916;8.990;2022-11-11T05:20:25;11.20;56.10
12769;DHT22;6448;48.916;8.990;2022-11-11T05:22:07;11.10;56.10
12769;DHT22;6448;48.916;8.990;2022-11-11T05:23:28;11.10;56.10
12769;DHT22;6448;48.916;8.990;2022-11-11T05:25:04;11.10;56.20
12769;DHT22;6448;48.916;8.990;2022-11-11T05:26:42;11.10;56.20
12769;DHT22;6448;48.916;8.990;2022-11-11T05:28:03;11.10;56.30
12769;DHT22;6448;48.916;8.990;2022-11-11T05:29:23;11.10;56.30
12769;DHT22;6448;48.916;8.990;2022-11-11T05:30:42;11.10;56.40
12769;DHT22;6448;48.916;8.990;2022-11-11T05:32:03;11.10;56.30
12769;DHT22;6448;48.916;8.990;2022-11-11T05:33:26;11.10;56.30
12769;DHT22;6448;48.916;8.990;2022-11-11T05:34:47;11.10;56.10
12769;DHT22;6448;48.916;8.990;2022-11-11T05:36:08;11.10;56.00
12769;DHT22;6448;48.916;8.990;2022-11-11T05:37:27;11.10;56.00
12769;DHT22;6448;48.916;8.990;2022-11-11T05:38:47;11.10;56.00
12769;DHT22;6448;48.916;8.990;2022-11-11T05:40:08;11.20;56.00
12769;DHT22;6448;48.916;8.990;2022-11-11T05:41:29;11.10;56.00
12769;DHT22;6448;48.916;8.990;2022-11-11T05:42:48;11.10;56.00
12769;DHT22;6448;48.916;8.990;2022-11-11T05:44:09;11.10;56.00
12769;DHT22;6448;48.916;8.990;2022-11-11T05:45:28;11.10;56.00
12769;DHT22;6448;48.916;8.990;2022-11-11T05:46:48;11.10;56.00
12769;DHT22;6448;48.916;8.990;2022-11-11T05:48:09;11.10;56.00
12769;DHT22;6448;48.916;8.990;2022-11-11T05:49:30;11.10;56.00
12769;DHT22;6448;48.916;8.990;2022-11-11T05:50:50;11.10;56.00
12769;DHT22;6448;48.916;8.990;2022-11-11T05:52:12;11.10;56.00
12769;DHT22;6448;48.916;8.990;2022-11-11T05:53:34;11.00;56.00
12769;DHT22;6448;48.916;8.990;2022-11-11T05:54:53;11.00;56.00
12769;DHT22;6448;48.916;8.990;2022-11-11T05:56:13;11.10;56.10
12769;DHT22;6448;48.916;8.990;2022-11-11T05:57:33;11.10;56.20
12769;DHT22;6448;48.916;8.990;2022-11-11T05:58:54;11.00;56.20
12769;DHT22;6448;48.916;8.990;2022-11-11T06:00:14;11.00;56.10
12769;DHT22;6448;48.916;8.990;2022-11-11T06:01:36;11.00;56.20
12769;DHT22;6448;48.916;8.990;2022-11-11T06:03:01;11.00;56.20
12769;DHT22;6448;48.916;8.990;2022-11-11T06:04:22;11.00;56.20
12769;DHT22;6448;48.916;8.990;2022-11-11T06:05:44;11.00;56.30
12769;DHT22;6448;48.916;8.990;2022-11-11T06:07:03;11.00;56.40
12769;DHT22;6448;48.916;8.990;2022-11-11T06:08:23;11.00;56.40
12769;DHT22;6448;48.916;8.990;2022-11-11T06:09:44;11.00;56.40
12769;DHT22;6448;48.916;8.990;2022-11-11T06:11:04;11.00;56.50
12769;DHT22;6448;48.916;8.990;2022-11-11T06:12:24;11.00;56.50
12769;DHT22;6448;48.916;8.990;2022-11-11T06:14:04;11.00;56.60
12769;DHT22;6448;48.916;8.990;2022-11-11T06:15:25;11.00;56.60
12769;DHT22;6448;48.916;8.990;2022-11-11T06:16:44;11.00;56.70
12769;DHT22;6448;48.916;8.990;2022-11-11T06:18:05;11.00;56.70
12769;DHT22;6448;48.916;8.990;2022-11-11T06:19:25;11.10;56.70
12769;DHT22;6448;48.916;8.990;2022-11-11T06:20:51;11.00;56.60
12769;DHT22;6448;48.916;8.990;2022-11-11T06:22:12;11.00;56.50
12769;DHT22;6448;48.916;8.990;2022-11-11T06:23:53;11.00;56.50
12769;DHT22;6448;48.916;8.990;2022-11-11T06:25:13;11.00;56.40
12769;DHT22;6448;48.916;8.990;2022-11-11T06:26:51;11.00;56.40
12769;DHT22;6448;48.916;8.990;2022-11-11T06:28:12;11.00;56.40
12769;DHT22;6448;48.916;8.990;2022-11-11T06:29:31;11.00;56.40
12769;DHT22;6448;48.916;8.990;2022-11-11T06:30:52;11.00;56.40
12769;DHT22;6448;48.916;8.990;2022-11-11T06:32:11;11.00;56.40
12769;DHT22;6448;48.916;8.990;2022-11-11T06:33:32;11.00;56.40
12769;DHT22;6448;48.916;8.990;2022-11-11T06:34:51;11.00;56.40
12769;DHT22;6448;48.916;8.990;2022-11-11T06:36:15;11.00;56.40
12769;DHT22;6448;48.916;8.990;2022-11-11T06:37:36;10.90;56.40
12769;DHT22;6448;48.916;8.990;2022-11-11T06:38:55;10.90;56.30
12769;DHT22;6448;48.916;8.990;2022-11-11T06:40:15;11.00;56.40
12769;DHT22;6448;48.916;8.990;2022-11-11T06:41:35;11.00;56.40
12769;DHT22;6448;48.916;8.990;2022-11-11T06:42:56;11.00;56.30
12769;DHT22;6448;48.916;8.990;2022-11-11T06:44:15;11.10;56.40
12769;DHT22;6448;48.916;8.990;2022-11-11T06:45:36;10.90;56.30
12769;DHT22;6448;48.916;8.990;2022-11-11T06:46:56;11.00;56.40
12769;DHT22;6448;48.916;8.990;2022-11-11T06:48:17;10.90;56.30
12769;DHT22;6448;48.916;8.990;2022-11-11T06:49:37;10.90;56.30
12769;DHT22;6448;48.916;8.990;2022-11-11T06:51:01;10.90;56.30
12769;DHT22;6448;48.916;8.990;2022-11-11T06:52:23;10.90;56.20
12769;DHT22;6448;48.916;8.990;2022-11-11T06:53:43;10.90;56.20
12769;DHT22;6448;48.916;8.990;2022-11-11T06:55:04;10.90;56.20
12769;DHT22;6448;48.916;8.990;2022-11-11T06:56:23;10.90;56.20
12769;DHT22;6448;48.916;8.990;2022-11-11T06:57:44;10.90;56.20
12769;DHT22;6448;48.916;8.990;2022-11-11T06:59:04;10.90;56.10
12769;DHT22;6448;48.916;8.990;2022-11-11T07:00:26;10.90;56.20
12769;DHT22;6448;48.916;8.990;2022-11-11T07:01:45;10.90;56.20
12769;DHT22;6448;48.916;8.990;2022-11-11T07:03:07;10.90;56.20
12769;DHT22;6448;48.916;8.990;2022-11-11T07:04:27;10.90;56.20
12769;DHT22;6448;48.916;8.990;2022-11-11T07:05:49;10.90;56.20
12769;DHT22;6448;48.916;8.990;2022-11-11T07:07:08;10.90;56.20
12769;DHT22;6448;48.916;8.990;2022-11-11T07:08:31;10.80;56.20
12769;DHT22;6448;48.916;8.990;2022-11-11T07:09:51;10.80;56.20
12769;DHT22;6448;48.916;8.990;2022-11-11T07:11:10;10.90;56.40
12769;DHT22;6448;48.916;8.990;2022-11-11T07:12:32;10.80;56.40
12769;DHT22;6448;48.916;8.990;2022-11-11T07:13:51;10.80;56.40
12769;DHT22;6448;48.916;8.990;2022-11-11T07:15:12;10.90;56.50
12769;DHT22;6448;48.916;8.990;2022-11-11T07:16:31;10.80;56.50
12769;DHT22;6448;48.916;8.990;2022-11-11T07:17:52;10.80;56.60
12769;DHT22;6448;48.916;8.990;2022-11-11T07:19:11;10.80;56.70
12769;DHT22;6448;48.916;8.990;2022-11-11T07:20:31;10.90;56.80
12769;DHT22;6448;48.916;8.990;2022-11-11T07:21:51;10.80;56.80
12769;DHT22;6448;48.916;8.990;2022-11-11T07:23:11;10.80;56.80
12769;DHT22;6448;48.916;8.990;2022-11-11T07:24:32;10.80;56.80
12769;DHT22;6448;48.916;8.990;2022-11-11T07:25:53;10.80;56.90
12769;DHT22;6448;48.916;8.990;2022-11-11T07:27:13;10.80;56.80
12769;DHT22;6448;48.916;8.990;2022-11-11T07:28:34;10.80;57.00
12769;DHT22;6448;48.916;8.990;2022-11-11T07:29:54;10.80;57.00
12769;DHT22;6448;48.916;8.990;2022-11-11T07:31:15;10.80;56.90
12769;DHT22;6448;48.916;8.990;2022-11-11T07:32:35;10.80;56.90
12769;DHT22;6448;48.916;8.990;2022-11-11T07:33:56;10.70;56.90
12769;DHT22;6448;48.916;8.990;2022-11-11T07:35:18;10.80;57.00
12769;DHT22;6448;48.916;8.990;2022-11-11T07:36:37;10.80;57.10
12769;DHT22;6448;48.916;8.990;2022-11-11T07:37:58;10.70;57.00
12769;DHT22;6448;48.916;8.990;2022-11-11T07:39:18;10.70;57.10
12769;DHT22;6448;48.916;8.990;2022-11-11T07:40:40;10.80;57.20
12769;DHT22;6448;48.916;8.990;2022-11-11T07:42:00;10.80;57.20
12769;DHT22;6448;48.916;8.990;2022-11-11T07:43:20;10.80;57.20
12769;DHT22;6448;48.916;8.990;2022-11-11T07:44:40;10.80;57.30
12769;DHT22;6448;48.916;8.990;2022-11-11T07:46:01;10.80;57.40
12769;DHT22;6448;48.916;8.990;2022-11-11T07:47:21;10.80;57.40
12769;DHT22;6448;48.916;8.990;2022-11-11T07:48:42;10.80;57.40
12769;DHT22;6448;48.916;8.990;2022-11-11T07:50:04;10.80;57.50
12769;DHT22;6448;48.916;8.990;2022-11-11T07:51:24;10.80;57.50
12769;DHT22;6448;48.916;8.990;2022-11-11T07:52:48;10.80;57.50
12769;DHT22;6448;48.916;8.990;2022-11-11T07:54:09;10.80;57.50
12769;DHT22;6448;48.916;8.990;2022-11-11T07:55:29;10.80;57.60
12769;DHT22;6448;48.916;8.990;2022-11-11T07:56:51;10.90;57.70
12769;DHT22;6448;48.916;8.990;2022-11-11T07:58:11;10.80;57.70
12769;DHT22;6448;48.916;8.990;2022-11-11T07:59:31;10.80;57.80
12769;DHT22;6448;48.916;8.990;2022-11-11T08:00:52;10.80;57.80
12769;DHT22;6448;48.916;8.990;2022-11-11T08:02:13;10.80;57.80
12769;DHT22;6448;48.916;8.990;2022-11-11T08:03:33;10.80;57.90
12769;DHT22;6448;48.916;8.990;2022-11-11T08:04:53;10.80;57.90
12769;DHT22;6448;48.916;8.990;2022-11-11T08:06:14;10.80;58.00
12769;DHT22;6448;48.916;8.990;2022-11-11T08:07:35;10.90;58.10
12769;DHT22;6448;48.916;8.990;2022-11-11T08:08:55;10.80;58.10
12769;DHT22;6448;48.916;8.990;2022-11-11T08:10:16;10.80;58.10
12769;DHT22;6448;48.916;8.990;2022-11-11T08:11:36;10.90;58.20
12769;DHT22;6448;48.916;8.990;2022-11-11T08:13:16;10.90;58.30
12769;DHT22;6448;48.916;8.990;2022-11-11T08:14:54;10.90;58.30
12769;DHT22;6448;48.916;8.990;2022-11-11T08:16:15;10.90;58.40
12769;DHT22;6448;48.916;8.990;2022-11-11T08:17:37;10.90;58.50
12769;DHT22;6448;48.916;8.990;2022-11-11T08:18:58;10.90;58.50
12769;DHT22;6448;48.916;8.990;2022-11-11T08:20:18;10.90;58.50
12769;DHT22;6448;48.916;8.990;2022-11-11T08:21:39;10.90;58.60
12769;DHT22;6448;48.916;8.990;2022-11-11T08:23:00;10.90;58.60
12769;DHT22;6448;48.916;8.990;2022-11-11T08:24:22;10.90;58.60
12769;DHT22;6448;48.916;8.990;2022-11-11T08:25:43;10.90;58.60
12769;DHT22;6448;48.916;8.990;2022-11-11T08:27:04;11.00;58.60
12769;DHT22;6448;48.916;8.990;2022-11-11T08:28:26;10.90;58.60
12769;DHT22;6448;48.916;8.990;2022-11-11T08:29:47;10.90;58.70
12769;DHT22;6448;48.916;8.990;2022-11-11T08:31:07;11.00;58.80
12769;DHT22;6448;48.916;8.990;2022-11-11T08:32:28;11.00;58.80
12769;DHT22;6448;48.916;8.990;2022-11-11T08:33:48;11.00;58.80
12769;DHT22;6448;48.916;8.990;2022-11-11T08:35:09;11.00;58.80
12769;DHT22;6448;48.916;8.990;2022-11-11T08:36:29;11.00;58.80
12769;DHT22;6448;48.916;8.990;2022-11-11T08:37:50;11.00;58.90
12769;DHT22;6448;48.916;8.990;2022-11-11T08:39:10;11.00;58.90
12769;DHT22;6448;48.916;8.990;2022-11-11T08:40:30;11.00;58.90
12769;DHT22;6448;48.916;8.990;2022-11-11T08:41:51;11.00;58.90
12769;DHT22;6448;48.916;8.990;2022-11-11T08:43:11;11.10;58.90
12769;DHT22;6448;48.916;8.990;2022-11-11T08:44:33;11.10;59.00
12769;DHT22;6448;48.916;8.990;2022-11-11T08:45:54;11.10;58.90
12769;DHT22;6448;48.916;8.990;2022-11-11T08:47:15;11.10;59.00
12769;DHT22;6448;48.916;8.990;2022-11-11T08:48:38;11.10;59.00
12769;DHT22;6448;48.916;8.990;2022-11-11T08:49:58;11.10;59.00
12769;DHT22;6448;48.916;8.990;2022-11-11T08:51:19;11.10;59.00
12769;DHT22;6448;48.916;8.990;2022-11-11T08:52:44;11.10;59.00
12769;DHT22;6448;48.916;8.990;2022-11-11T08:54:05;11.20;59.20